Airfield :
LOGIN :

Register | Disclaimer

   EN    FR    IT 

 










Legend :    VFR   Marginal VFR   IFR   Intensive IFR   Very Intensive IFR
Visi :
Ceiling :
>= 8 km
>= 3000ft
5 to 8 km
1000 to 3000 ft
1500m to 5 km
500 to 1000 ft
800 to 1500m
200 to 500 ft
< 800m
< 200 ft
Symbols :   Thunderstorms  Fog  Heavy snow  Heavy precipitations  Wind > 20 kt
SIGMETs :     Misc.  Thunderstorms  Icing  Turbulence  Mountain Waves  Volcanic Ashes






- Airport Elevation : 427 ft
- IATA code : CIA


LIRA - Roma Ciampino

CURRENT METAR :
  • 262120Z 10004KT CAVOK 07/06 Q1020

EXPIRED METARs :
  • 262050Z 10004KT CAVOK 07/06 Q1019
  • 262020Z 10003KT 040V120 9999 FEW030 08/07 Q1019
  • 261950Z 10002KT 9999 SCT030 08/06 Q1019
  • 261920Z VRB02KT 9999 SCT030 08/06 Q1019
  • 261850Z VRB01KT 9999 SCT030 08/06 Q1019

TAF TAF LIRA
Valid from the 26 at 18:00 until the 27 at 18:00 UTC


261700Z 2618/2718 VRB05KT 7000 SCT020 SCT050
BECMG 2619/2621 4000 BR
TEMPO 2702/2708 0800 FG
BECMG 2708/2710 6000



MET'MAP, your aeronautical weather chart ! - Copyright ORBIFLY December 2007 - Disclaimer

ORBIFLY MET'MAP TEAM :

Programming & Development : Alexandra Zaïnal
Concept & original design : Baudouin d'Aumeries
Assistance for programming : Marc-Olivier Méhu
Technical & hardware support : Manuel Goepfert

Contact : metmap@orbifly.com




SOURCES & CREDITS :

   NOAA